Time;durP1;ratioP1;P1;durP2;ratioP2;P2;SDS_P1;SDS_P2;PMS_P1;PMS_P2;Temp;Humidity;BMP_temperature;BMP_pressure;BME280_temperature;BME280_humidity;BME280_pressure;Samples;Min_cycle;Max_cycle;Signal;HPM_P1;HPM_P2
2022/07/23 00:00:21;;;;;;;7.63;2.70;;;16.10;99.50;;;;;;5001135;28;20055;-42
2022/07/23 00:02:48;;;;;;;4.57;2.53;;;16.10;99.50;;;;;;4992217;28;20078;-42
2022/07/23 00:05:15;;;;;;;4.82;2.70;;;16.10;99.40;;;;;;4978428;28;20066;-42
2022/07/23 00:07:41;;;;;;;7.78;3.40;;;16.00;99.30;;;;;;4995366;28;20148;-42
2022/07/23 00:10:09;;;;;;;7.82;3.10;;;16.00;99.40;;;;;;4977365;28;20050;-42
2022/07/23 00:12:37;;;;;;;5.05;3.28;;;16.00;99.40;;;;;;4994927;28;20228;-42
2022/07/23 00:15:04;;;;;;;4.90;2.95;;;15.90;99.50;;;;;;4995488;28;20046;-42
2022/07/23 00:17:31;;;;;;;7.43;3.17;;;15.90;99.50;;;;;;4978147;28;20096;-42
2022/07/23 00:19:58;;;;;;;6.65;3.05;;;15.90;99.50;;;;;;4977960;28;20060;-42
2022/07/23 00:22:25;;;;;;;6.55;3.20;;;15.80;99.40;;;;;;4995301;28;20129;-42
2022/07/23 00:24:51;;;;;;;5.65;4.07;;;15.80;99.60;;;;;;4978689;28;20455;-42
2022/07/23 00:27:18;;;;;;;4.68;2.90;;;15.80;99.50;;;;;;4977692;28;20542;-42
2022/07/23 00:29:46;;;;;;;10.02;4.03;;;15.70;99.50;;;;;;4994437;28;20134;-42
2022/07/23 00:32:13;;;;;;;4.95;3.33;;;15.70;99.70;;;;;;4994334;28;20138;-43
2022/07/23 00:34:39;;;;;;;4.88;3.03;;;15.60;99.60;;;;;;4986295;28;20129;-42
2022/07/23 00:37:06;;;;;;;5.88;3.95;;;15.60;99.50;;;;;;4977729;28;20144;-42
2022/07/23 00:39:33;;;;;;;5.55;3.80;;;15.60;99.80;;;;;;4976704;28;20046;-42
2022/07/23 00:42:00;;;;;;;8.57;4.18;;;15.50;99.70;;;;;;5004443;28;20045;-42
2022/07/23 00:44:27;;;;;;;5.88;3.75;;;15.50;99.90;;;;;;4997247;28;20081;-42
2022/07/23 00:46:56;;;;;;;6.35;4.00;;;15.50;99.80;;;;;;5014423;28;20088;-42
2022/07/23 00:49:23;;;;;;;4.80;3.30;;;15.40;99.90;;;;;;5004233;28;20083;-42
2022/07/23 00:51:50;;;;;;;5.35;3.95;;;15.40;99.90;;;;;;4992915;28;20137;-42
2022/07/23 00:54:17;;;;;;;4.75;3.60;;;15.40;99.80;;;;;;4993913;28;20054;-42
2022/07/23 00:56:44;;;;;;;7.03;3.97;;;15.30;99.90;;;;;;4994804;28;20050;-42
2022/07/23 00:59:11;;;;;;;5.05;4.13;;;15.30;99.80;;;;;;4977776;28;20461;-42
2022/07/23 01:01:38;;;;;;;6.00;4.40;;;15.20;99.80;;;;;;4994827;28;20462;-42
2022/07/23 01:04:06;;;;;;;7.22;4.10;;;15.20;99.90;;;;;;4993077;28;20100;-42
2022/07/23 01:06:34;;;;;;;7.03;4.32;;;15.20;99.90;;;;;;5013420;28;20144;-42
2022/07/23 01:09:01;;;;;;;4.95;3.33;;;15.10;99.90;;;;;;5006227;28;20042;-42
2022/07/23 01:11:27;;;;;;;4.95;3.40;;;15.10;99.90;;;;;;4995142;28;20149;-42
2022/07/23 01:13:54;;;;;;;5.65;3.83;;;15.00;99.90;;;;;;4977843;28;20149;-42
2022/07/23 01:16:21;;;;;;;5.93;3.40;;;15.00;99.90;;;;;;4993115;28;20073;-42
2022/07/23 01:18:48;;;;;;;10.10;4.22;;;15.00;99.90;;;;;;4981271;28;20109;-42
2022/07/23 01:21:16;;;;;;;4.65;3.58;;;15.00;99.90;;;;;;4993200;28;20137;-42
2022/07/23 01:23:44;;;;;;;5.15;4.30;;;15.00;99.90;;;;;;4994087;28;20138;-42
2022/07/23 01:26:11;;;;;;;6.13;4.38;;;14.90;99.90;;;;;;4994369;28;20129;-42
2022/07/23 01:28:38;;;;;;;6.65;3.38;;;14.90;99.90;;;;;;4989013;28;20129;-42
2022/07/23 01:31:04;;;;;;;5.68;4.38;;;14.80;99.90;;;;;;4977256;28;20488;-42
2022/07/23 01:33:31;;;;;;;3.88;3.58;;;14.80;99.90;;;;;;4982473;28;20093;-41
2022/07/23 01:35:58;;;;;;;5.05;3.80;;;14.80;99.90;;;;;;4976965;28;20046;-42
2022/07/23 01:38:25;;;;;;;4.60;3.70;;;14.80;99.90;;;;;;4976590;28;20053;-43
2022/07/23 01:40:53;;;;;;;3.35;2.75;;;14.80;99.90;;;;;;4993511;28;20047;-42
2022/07/23 01:43:20;;;;;;;3.88;3.00;;;14.70;99.90;;;;;;4992556;28;20129;-42
2022/07/23 01:45:46;;;;;;;4.40;3.70;;;14.70;99.90;;;;;;4994010;28;20478;-42
2022/07/23 01:48:13;;;;;;;6.03;3.20;;;14.70;99.90;;;;;;4976027;28;20458;-42
2022/07/23 01:50:40;;;;;;;5.22;4.15;;;14.60;99.90;;;;;;4993153;28;20459;-42
2022/07/23 01:53:07;;;;;;;3.85;3.22;;;14.60;99.90;;;;;;4992659;28;20050;-43
2022/07/23 01:55:33;;;;;;;6.97;3.78;;;14.60;99.90;;;;;;4993666;28;20137;-42
2022/07/23 01:58:01;;;;;;;7.22;4.28;;;14.60;99.90;;;;;;4994435;28;20060;-42
2022/07/23 02:00:28;;;;;;;8.20;3.60;;;14.50;99.90;;;;;;5013207;28;20132;-43
2022/07/23 02:02:55;;;;;;;3.30;3.00;;;14.50;99.90;;;;;;4995323;28;20085;-42
2022/07/23 02:05:22;;;;;;;4.10;3.35;;;14.50;99.90;;;;;;4996265;28;20050;-42
2022/07/23 02:07:48;;;;;;;6.28;3.78;;;14.50;99.90;;;;;;4988331;28;20050;-43
2022/07/23 02:10:15;;;;;;;3.30;3.00;;;14.40;99.90;;;;;;4984093;28;20518;-43
2022/07/23 02:12:42;;;;;;;7.05;3.80;;;14.40;99.90;;;;;;4991430;28;20506;-44
2022/07/23 02:15:10;;;;;;;5.88;3.92;;;14.40;99.90;;;;;;4993500;28;20089;-42
2022/07/23 02:17:37;;;;;;;5.55;2.97;;;14.30;99.90;;;;;;4992459;28;20054;-43
2022/07/23 02:20:05;;;;;;;3.33;2.83;;;14.30;99.90;;;;;;4976202;28;20061;-42
2022/07/23 02:22:32;;;;;;;5.70;3.50;;;14.30;99.90;;;;;;4976147;28;20133;-42
2022/07/23 02:24:58;;;;;;;4.20;3.08;;;14.30;99.90;;;;;;4992673;28;20085;-42
2022/07/23 02:27:25;;;;;;;4.45;3.47;;;14.20;99.90;;;;;;4986431;28;20132;-43
2022/07/23 02:29:52;;;;;;;5.55;3.58;;;14.20;99.90;;;;;;4995377;28;20143;-42
2022/07/23 02:32:21;;;;;;;6.38;2.92;;;14.20;99.90;;;;;;4995520;28;20049;-43
2022/07/23 02:34:48;;;;;;;9.18;3.53;;;14.20;99.90;;;;;;4997635;28;20046;-43
2022/07/23 02:37:15;;;;;;;5.72;3.88;;;14.20;99.90;;;;;;4992763;28;20133;-43
2022/07/23 02:39:42;;;;;;;4.68;3.60;;;14.10;99.90;;;;;;4992291;28;20086;-43
2022/07/23 02:42:08;;;;;;;5.47;3.42;;;14.10;99.90;;;;;;4993317;28;20137;-42
2022/07/23 02:44:35;;;;;;;5.63;3.30;;;14.10;99.90;;;;;;5009302;28;20449;-43
2022/07/23 02:47:02;;;;;;;4.03;2.80;;;14.10;99.90;;;;;;4996489;28;20082;-42
2022/07/23 02:49:30;;;;;;;4.13;3.22;;;14.00;99.90;;;;;;4993112;28;20090;-42
2022/07/23 02:51:57;;;;;;;5.15;3.60;;;14.00;99.90;;;;;;4992509;28;20062;-42
2022/07/23 02:54:23;;;;;;;4.80;3.35;;;14.00;99.90;;;;;;4976000;28;20141;-43
2022/07/23 02:56:51;;;;;;;5.60;3.28;;;13.90;99.90;;;;;;4992597;28;20467;-42
2022/07/23 02:59:18;;;;;;;4.63;3.33;;;14.00;99.90;;;;;;4988490;28;20064;-42
2022/07/23 03:01:44;;;;;;;4.07;2.80;;;13.90;99.90;;;;;;5007615;28;20447;-43
2022/07/23 03:04:11;;;;;;;4.43;3.20;;;13.90;99.90;;;;;;4975879;28;20055;-42
2022/07/23 03:06:39;;;;;;;3.50;3.20;;;13.90;99.90;;;;;;4992093;28;20164;-43
2022/07/23 03:09:06;;;;;;;5.00;3.05;;;13.80;99.90;;;;;;4975952;28;20141;-43
2022/07/23 03:11:33;;;;;;;4.55;2.95;;;13.80;99.90;;;;;;4993908;28;20054;-43
2022/07/23 03:13:59;;;;;;;5.03;3.47;;;13.80;99.90;;;;;;4976115;28;20125;-43
2022/07/23 03:16:26;;;;;;;6.07;4.22;;;13.80;99.90;;;;;;4995796;28;20056;-43
2022/07/23 03:18:53;;;;;;;3.95;2.75;;;13.80;99.90;;;;;;4979253;28;20054;-43
2022/07/23 03:21:20;;;;;;;4.65;3.15;;;13.70;99.90;;;;;;4996398;28;20133;-43
2022/07/23 03:23:48;;;;;;;5.43;3.50;;;13.80;99.90;;;;;;4982841;28;20566;-42
2022/07/23 03:26:14;;;;;;;4.47;3.15;;;13.70;99.90;;;;;;4996241;28;20153;-42
2022/07/23 03:28:41;;;;;;;5.05;3.50;;;13.70;99.90;;;;;;4995919;28;20145;-43
2022/07/23 03:31:08;;;;;;;4.78;2.20;;;13.70;99.90;;;;;;4979513;28;20149;-42
2022/07/23 03:33:35;;;;;;;3.08;2.80;;;13.60;99.90;;;;;;4996142;28;20053;-42
2022/07/23 03:36:01;;;;;;;3.60;3.30;;;13.60;99.90;;;;;;4978527;28;20145;-43
2022/07/23 03:38:28;;;;;;;5.53;4.15;;;13.60;99.90;;;;;;4981139;28;20050;-42
2022/07/23 03:40:56;;;;;;;4.72;3.55;;;13.60;99.90;;;;;;4997031;28;20089;-43
2022/07/23 03:43:25;;;;;;;4.45;3.15;;;13.50;99.90;;;;;;4995639;28;20084;-43
2022/07/23 03:45:52;;;;;;;4.57;3.10;;;13.50;99.90;;;;;;4989541;28;20050;-42
2022/07/23 03:48:19;;;;;;;2.75;2.55;;;13.50;99.90;;;;;;4978492;28;20137;-42
2022/07/23 03:50:45;;;;;;;3.70;3.10;;;13.50;99.90;;;;;;4979282;28;20141;-42
2022/07/23 03:53:12;;;;;;;3.75;3.05;;;13.40;99.90;;;;;;4978242;28;20396;-42
2022/07/23 03:55:39;;;;;;;4.15;3.05;;;13.40;99.90;;;;;;4994909;28;20050;-43
2022/07/23 03:58:07;;;;;;;6.43;3.47;;;13.50;99.90;;;;;;4996920;28;20125;-43
2022/07/23 04:00:34;;;;;;;2.78;2.53;;;13.40;99.90;;;;;;4980662;28;20133;-43
2022/07/23 04:03:00;;;;;;;3.80;3.22;;;13.40;99.90;;;;;;4978344;28;20050;-42
2022/07/23 04:05:27;;;;;;;3.28;2.95;;;13.40;99.90;;;;;;5001380;28;20057;-41
2022/07/23 04:07:54;;;;;;;3.33;2.83;;;13.40;99.90;;;;;;4996546;28;20159;-42
2022/07/23 04:10:21;;;;;;;4.00;2.38;;;13.40;99.90;;;;;;5013670;28;20128;-43
2022/07/23 04:12:47;;;;;;;4.68;2.78;;;13.40;99.90;;;;;;5003860;28;20481;-43
2022/07/23 04:15:16;;;;;;;3.65;2.75;;;13.40;99.90;;;;;;4995722;28;20534;-43
2022/07/23 04:17:43;;;;;;;5.50;3.10;;;13.40;99.90;;;;;;4977334;28;20136;-43
2022/07/23 04:20:11;;;;;;;3.15;2.70;;;13.40;99.90;;;;;;4995311;28;20093;-43
2022/07/23 04:22:38;;;;;;;3.65;2.55;;;13.40;99.90;;;;;;4994288;28;20434;-42
2022/07/23 04:25:05;;;;;;;7.20;2.95;;;13.40;99.90;;;;;;4979229;28;20074;-43
2022/07/23 04:27:33;;;;;;;9.95;3.15;;;13.40;99.90;;;;;;4977571;28;20062;-42
2022/07/23 04:30:00;;;;;;;5.85;3.15;;;13.40;99.90;;;;;;4978077;28;20046;-43
2022/07/23 04:32:28;;;;;;;4.55;3.00;;;13.40;99.90;;;;;;4977778;28;20501;-41
2022/07/23 04:34:54;;;;;;;4.72;3.50;;;13.40;99.90;;;;;;4994819;28;20533;-43
2022/07/23 04:37:21;;;;;;;6.20;3.50;;;13.40;99.90;;;;;;4983238;28;20048;-42
2022/07/23 04:39:48;;;;;;;6.70;3.58;;;13.40;99.90;;;;;;4994953;28;20058;-42
2022/07/23 04:42:15;;;;;;;9.63;3.60;;;13.40;99.90;;;;;;4977724;28;20133;-42
2022/07/23 04:44:41;;;;;;;4.30;3.28;;;13.40;99.90;;;;;;4994807;28;20055;-42
2022/07/23 04:47:08;;;;;;;4.63;2.90;;;13.40;99.90;;;;;;4994942;28;20455;-42
2022/07/23 04:49:36;;;;;;;7.72;4.55;;;13.40;99.90;;;;;;4993455;28;20562;-43
2022/07/23 04:52:03;;;;;;;4.55;3.22;;;13.40;99.90;;;;;;4993421;28;20050;-43
2022/07/23 04:54:30;;;;;;;5.80;3.38;;;13.40;99.90;;;;;;4998642;28;20129;-42
2022/07/23 04:56:57;;;;;;;7.03;4.00;;;13.40;99.90;;;;;;5012309;28;20152;-42
2022/07/23 04:59:24;;;;;;;3.60;2.97;;;13.40;99.90;;;;;;4995400;28;20128;-43
2022/07/23 05:01:50;;;;;;;6.00;3.10;;;13.40;99.90;;;;;;4995460;28;20060;-42
2022/07/23 05:04:17;;;;;;;4.35;3.83;;;13.50;99.90;;;;;;4978179;28;20054;-43
2022/07/23 05:06:45;;;;;;;7.35;3.47;;;13.50;99.90;;;;;;4995546;28;20537;-43
2022/07/23 05:09:12;;;;;;;5.25;3.58;;;13.50;99.90;;;;;;4994724;28;20054;-43
2022/07/23 05:11:39;;;;;;;6.50;4.85;;;13.50;99.90;;;;;;4994178;28;20050;-43
2022/07/23 05:14:06;;;;;;;7.45;4.20;;;13.60;99.90;;;;;;4995232;28;20050;-42
2022/07/23 05:16:33;;;;;;;6.60;4.25;;;13.60;99.90;;;;;;4999261;28;20042;-42
2022/07/23 05:18:59;;;;;;;7.80;3.88;;;13.60;99.90;;;;;;4985520;28;20128;-42
2022/07/23 05:21:26;;;;;;;6.60;4.22;;;13.60;99.90;;;;;;4993313;28;20141;-43
2022/07/23 05:23:54;;;;;;;8.45;5.25;;;13.70;99.90;;;;;;4994295;28;20081;-42
2022/07/23 05:26:21;;;;;;;8.00;4.55;;;13.70;99.90;;;;;;4994387;28;20086;-42
2022/07/23 05:28:48;;;;;;;6.35;4.03;;;13.80;99.90;;;;;;5005968;28;20045;-42
2022/07/23 05:31:15;;;;;;;8.90;4.88;;;13.80;99.90;;;;;;4990287;28;20128;-43
2022/07/23 05:33:41;;;;;;;8.13;4.63;;;13.80;99.90;;;;;;4992878;28;20082;-42
2022/07/23 05:36:08;;;;;;;7.65;4.93;;;13.90;99.90;;;;;;4994969;28;20479;-42
2022/07/23 05:38:35;;;;;;;10.10;5.90;;;14.00;99.90;;;;;;4977235;28;20077;-43
2022/07/23 05:41:03;;;;;;;9.80;5.15;;;14.10;99.90;;;;;;4997654;28;20046;-42
2022/07/23 05:43:30;;;;;;;11.60;6.05;;;14.20;99.90;;;;;;4994272;28;20085;-42
2022/07/23 05:45:57;;;;;;;10.55;6.15;;;14.30;99.90;;;;;;5011799;28;20125;-42
2022/07/23 05:48:23;;;;;;;7.45;4.95;;;14.30;99.90;;;;;;5013255;28;20129;-43
2022/07/23 05:50:50;;;;;;;9.48;4.28;;;14.40;99.90;;;;;;4984364;28;20054;-42
2022/07/23 05:53:17;;;;;;;7.57;4.78;;;14.60;99.90;;;;;;5011345;28;20108;-42
2022/07/23 05:55:44;;;;;;;7.15;4.88;;;14.80;99.90;;;;;;5012883;28;20077;-42
2022/07/23 05:58:12;;;;;;;9.13;6.03;;;14.80;99.90;;;;;;5004861;28;20092;-42
2022/07/23 06:00:39;;;;;;;9.65;5.13;;;14.90;99.90;;;;;;4991574;28;20105;-42
2022/07/23 06:03:05;;;;;;;9.65;4.85;;;15.00;99.90;;;;;;5013088;28;20086;-43
2022/07/23 06:05:32;;;;;;;9.90;4.90;;;15.10;99.90;;;;;;4993796;28;20085;-42
2022/07/23 06:07:59;;;;;;;11.15;4.57;;;15.30;99.90;;;;;;5000836;28;20113;-42
2022/07/23 06:10:26;;;;;;;7.30;4.78;;;15.40;99.90;;;;;;4994850;28;20097;-42
2022/07/23 06:12:52;;;;;;;6.55;3.78;;;15.50;99.90;;;;;;4993377;28;20082;-42
2022/07/23 06:15:21;;;;;;;8.30;4.55;;;15.70;99.90;;;;;;4981140;28;20058;-42
2022/07/23 06:17:47;;;;;;;7.20;3.70;;;15.80;99.90;;;;;;4992785;28;20491;-42
2022/07/23 06:20:14;;;;;;;9.27;3.78;;;15.90;99.90;;;;;;4993944;28;20046;-42
2022/07/23 06:22:41;;;;;;;13.57;3.30;;;16.00;99.90;;;;;;4991889;28;20089;-42
2022/07/23 06:25:08;;;;;;;8.32;3.10;;;16.10;99.90;;;;;;4991000;28;20078;-42
2022/07/23 06:27:35;;;;;;;4.78;2.40;;;16.30;99.90;;;;;;4992490;28;20061;-44
2022/07/23 06:30:02;;;;;;;4.93;2.42;;;16.40;99.90;;;;;;4974100;28;20152;-41
2022/07/23 06:32:30;;;;;;;7.80;2.30;;;16.50;99.90;;;;;;4976106;28;20129;-42
2022/07/23 06:34:56;;;;;;;9.27;2.55;;;16.70;99.90;;;;;;4989444;28;20050;-41
2022/07/23 06:37:23;;;;;;;4.25;2.03;;;16.80;99.90;;;;;;4977064;28;20060;-42
2022/07/23 06:39:50;;;;;;;7.28;2.05;;;17.00;99.90;;;;;;4976922;28;20089;-43
2022/07/23 06:42:17;;;;;;;4.05;1.95;;;17.10;99.90;;;;;;4992724;28;20133;-42
2022/07/23 06:44:43;;;;;;;10.13;2.10;;;17.20;99.90;;;;;;4990617;28;20584;-44
2022/07/23 06:47:10;;;;;;;3.58;1.58;;;17.40;99.90;;;;;;4956649;28;20130;-43
2022/07/23 06:49:40;;;;;;;6.75;1.50;;;17.60;99.90;;;;;;4992282;28;20093;-43
2022/07/23 06:52:07;;;;;;;3.30;1.30;;;17.70;99.90;;;;;;4996756;28;20050;-42
2022/07/23 06:54:34;;;;;;;5.85;1.50;;;17.80;99.90;;;;;;4979039;28;20089;-42
2022/07/23 06:57:01;;;;;;;6.05;1.55;;;17.90;99.90;;;;;;4996294;28;20081;-43
2022/07/23 06:59:28;;;;;;;4.45;1.50;;;18.00;99.90;;;;;;4985469;28;20066;-43
2022/07/23 07:01:54;;;;;;;4.03;1.13;;;18.10;99.90;;;;;;4986823;28;20141;-43
2022/07/23 07:04:21;;;;;;;7.68;1.75;;;18.20;99.90;;;;;;4992017;28;20129;-42
2022/07/23 07:06:49;;;;;;;6.65;1.40;;;18.40;99.80;;;;;;4996522;28;20089;-42
2022/07/23 07:09:16;;;;;;;3.58;1.00;;;18.50;99.10;;;;;;4978085;28;20141;-42
2022/07/23 07:11:43;;;;;;;3.95;1.00;;;18.60;99.00;;;;;;4996495;28;20447;-42
2022/07/23 07:14:09;;;;;;;1.90;0.90;;;18.70;98.70;;;;;;5001215;28;20073;-42
2022/07/23 07:16:36;;;;;;;1.25;0.80;;;18.80;98.60;;;;;;5012668;28;20092;-42
2022/07/23 07:19:03;;;;;;;5.82;1.20;;;18.90;98.40;;;;;;5012150;28;20128;-42
2022/07/23 07:21:30;;;;;;;4.65;1.02;;;19.00;98.20;;;;;;4977754;28;20119;-42
2022/07/23 07:23:58;;;;;;;3.03;1.00;;;19.10;98.00;;;;;;4978878;28;20054;-42
2022/07/23 07:26:24;;;;;;;2.90;1.10;;;19.20;97.70;;;;;;4996402;28;20470;-43
2022/07/23 07:28:51;;;;;;;5.55;0.90;;;19.40;97.50;;;;;;4989970;28;20125;-42
2022/07/23 07:31:18;;;;;;;5.10;0.80;;;19.50;97.20;;;;;;5008314;28;20056;-43
2022/07/23 07:33:45;;;;;;;3.47;1.10;;;19.60;96.90;;;;;;5005974;28;20050;-43
2022/07/23 07:36:11;;;;;;;3.28;0.73;;;19.60;96.50;;;;;;4997168;28;20136;-43
2022/07/23 07:38:38;;;;;;;3.17;0.80;;;19.70;96.10;;;;;;5002655;28;20082;-43
2022/07/23 07:41:07;;;;;;;0.90;0.50;;;19.70;96.10;;;;;;4997330;28;20451;-43
2022/07/23 07:43:34;;;;;;;3.67;0.80;;;19.70;96.00;;;;;;4989276;28;20057;-42
2022/07/23 07:46:01;;;;;;;4.65;0.82;;;19.90;95.50;;;;;;5009796;28;20094;-42
2022/07/23 07:48:27;;;;;;;2.58;0.68;;;20.00;95.00;;;;;;5007446;28;20078;-42
2022/07/23 07:50:54;;;;;;;4.07;0.90;;;20.20;94.90;;;;;;4978068;28;20112;-42
2022/07/23 07:53:21;;;;;;;2.58;0.73;;;20.20;94.80;;;;;;5005090;28;20137;-42
2022/07/23 07:55:48;;;;;;;2.88;0.80;;;20.20;94.40;;;;;;4992999;28;20054;-43
2022/07/23 07:58:16;;;;;;;3.25;0.80;;;20.10;94.60;;;;;;4981047;28;20365;-42
2022/07/23 08:00:42;;;;;;;3.33;0.75;;;20.20;94.80;;;;;;5014197;28;20085;-42
2022/07/23 08:03:09;;;;;;;1.60;0.50;;;20.30;94.60;;;;;;4983100;28;20129;-43
2022/07/23 08:05:36;;;;;;;2.58;0.70;;;20.50;94.40;;;;;;4995602;28;20447;-43
2022/07/23 08:08:03;;;;;;;3.13;0.75;;;20.80;94.20;;;;;;4995393;28;20054;-41
2022/07/23 08:10:31;;;;;;;2.33;0.60;;;21.00;93.90;;;;;;4977591;28;20129;-42
2022/07/23 08:12:58;;;;;;;1.70;0.60;;;21.10;93.10;;;;;;4994556;28;20078;-42
2022/07/23 08:15:27;;;;;;;1.42;0.60;;;21.20;92.70;;;;;;4993171;28;20225;-42
2022/07/23 08:17:54;;;;;;;1.77;0.60;;;21.20;92.30;;;;;;4974915;28;20046;-42
2022/07/23 08:20:21;;;;;;;1.67;0.50;;;21.10;92.30;;;;;;4964687;28;20138;-43
2022/07/23 08:22:50;;;;;;;1.67;0.50;;;21.10;92.20;;;;;;4977686;28;20487;-42
2022/07/23 08:25:17;;;;;;;1.85;0.70;;;21.20;92.30;;;;;;4992300;28;20131;-43
2022/07/23 08:27:44;;;;;;;1.45;0.80;;;21.40;91.90;;;;;;4992835;28;20149;-42
2022/07/23 08:30:11;;;;;;;2.55;0.70;;;21.60;91.50;;;;;;4992193;28;20129;-43
2022/07/23 08:32:52;;;;;;;4.15;0.50;;;21.70;91.20;;;;;;4978022;28;20090;-44
2022/07/23 08:35:19;;;;;;;;;;;22.00;91.30;;;;;;4978344;28;20057;-43
2022/07/23 08:37:46;;;;;;;1.73;0.55;;;22.10;91.80;;;;;;5000368;28;20425;-43
2022/07/23 08:40:12;;;;;;;0.77;0.40;;;22.20;90.80;;;;;;5008122;28;20092;-42
2022/07/23 08:42:39;;;;;;;0.85;0.50;;;22.30;90.50;;;;;;4983500;28;20137;-43
2022/07/23 08:45:08;;;;;;;2.47;0.68;;;22.30;89.80;;;;;;4997444;28;20046;-43
2022/07/23 08:47:35;;;;;;;3.15;0.40;;;22.40;89.50;;;;;;5011654;28;20049;-44
2022/07/23 08:50:03;;;;;;;3.28;0.60;;;22.60;89.70;;;;;;5010847;28;20077;-43
2022/07/23 08:52:31;;;;;;;1.27;0.60;;;22.80;88.60;;;;;;4994868;28;20116;-42
2022/07/23 08:54:58;;;;;;;2.88;0.80;;;22.90;87.20;;;;;;4994719;28;20141;-44
2022/07/23 08:57:25;;;;;;;2.03;0.65;;;23.00;86.90;;;;;;4986750;28;20109;-44
2022/07/23 08:59:51;;;;;;;0.98;0.50;;;23.10;86.00;;;;;;4965662;28;20479;-44
2022/07/23 09:02:18;;;;;;;2.35;0.50;;;23.10;84.90;;;;;;4982210;28;20104;-44
2022/07/23 09:04:45;;;;;;;4.20;0.70;;;23.10;84.00;;;;;;4977855;28;20117;-43
2022/07/23 09:07:13;;;;;;;1.27;0.43;;;23.10;83.60;;;;;;4972297;28;20138;-43
2022/07/23 09:09:40;;;;;;;3.83;0.90;;;23.00;82.40;;;;;;4976724;28;20479;-43
2022/07/23 09:12:08;;;;;;;4.95;0.50;;;23.00;82.20;;;;;;4988492;28;20058;-44
2022/07/23 09:14:39;;;;;;;5.60;0.77;;;23.00;83.20;;;;;;4977442;28;20058;-43
2022/07/23 09:17:10;;;;;;;2.05;0.43;;;23.10;83.40;;;;;;4974183;28;20084;-43
2022/07/23 09:19:37;;;;;;;0.77;0.43;;;23.20;82.50;;;;;;4992755;28;20046;-42
2022/07/23 09:22:19;;;;;;;2.10;0.70;;;23.50;81.80;;;;;;4983539;28;20074;-43
2022/07/23 09:25:08;;;;;;;1.95;0.47;;;23.70;80.70;;;;;;4971424;28;20078;-43
2022/07/23 09:27:48;;;;;;;1.05;0.60;;;23.70;79.90;;;;;;4994491;28;20134;-43
2022/07/23 09:30:15;;;;;;;2.88;0.60;;;23.40;78.10;;;;;;4986795;28;20134;-42
2022/07/23 09:32:42;;;;;;;0.80;0.40;;;23.20;78.90;;;;;;4974911;28;20144;-44
2022/07/23 09:35:09;;;;;;;2.95;0.60;;;23.20;79.40;;;;;;4973984;28;20081;-43
2022/07/23 09:37:37;;;;;;;1.20;0.52;;;23.10;79.30;;;;;;4993915;28;20137;-44
2022/07/23 09:40:09;;;;;;;1.77;0.65;;;23.10;79.10;;;;;;4976316;28;20038;-43
2022/07/23 09:42:35;;;;;;;1.10;0.40;;;23.10;79.50;;;;;;4978217;28;20050;-44
2022/07/23 09:45:03;;;;;;;3.70;0.82;;;23.20;79.00;;;;;;4976202;28;20100;-44
2022/07/23 09:47:31;;;;;;;2.25;0.50;;;23.40;78.00;;;;;;4991874;28;20077;-44
2022/07/23 09:50:03;;;;;;;1.70;0.82;;;23.50;77.90;;;;;;4981563;28;20550;-42
2022/07/23 09:52:30;;;;;;;1.50;0.60;;;23.60;77.90;;;;;;4971181;28;20058;-42
2022/07/23 09:55:02;;;;;;;3.45;0.60;;;23.70;76.70;;;;;;4974654;28;20051;-43
2022/07/23 09:57:29;;;;;;;2.33;0.60;;;23.70;77.00;;;;;;4988473;28;20121;-42
2022/07/23 09:59:58;;;;;;;2.28;0.60;;;23.70;76.60;;;;;;4985679;28;20125;-43
2022/07/23 10:02:24;;;;;;;1.35;0.60;;;23.80;76.30;;;;;;4959712;28;20153;-44
2022/07/23 10:04:51;;;;;;;1.90;0.50;;;23.80;75.80;;;;;;4959283;28;20074;-44
2022/07/23 10:07:18;;;;;;;1.15;0.40;;;23.90;76.60;;;;;;4968469;28;20141;-44
2022/07/23 10:09:45;;;;;;;2.85;0.57;;;23.90;75.90;;;;;;4956485;28;20062;-43
2022/07/23 10:15:04;;;;;;;2.58;0.40;;;24.20;75.50;;;;;;4920167;28;20429;-44
2022/07/23 10:17:31;;;;;;;1.50;0.50;;;24.40;74.80;;;;;;4988678;28;20140;-43
2022/07/23 10:19:58;;;;;;;0.95;0.60;;;24.70;74.20;;;;;;4985022;28;20125;-44
2022/07/23 10:22:26;;;;;;;2.08;0.68;;;24.70;74.20;;;;;;4959390;28;20397;-43
2022/07/23 10:25:01;;;;;;;1.98;0.55;;;24.60;74.40;;;;;;4992630;28;20130;-44
2022/07/23 10:27:42;;;;;;;1.67;0.50;;;24.60;74.70;;;;;;4973609;28;20469;-44
2022/07/23 10:30:10;;;;;;;1.90;0.70;;;24.70;73.70;;;;;;4983720;28;20070;-44
2022/07/23 10:32:41;;;;;;;1.90;0.70;;;24.50;73.60;;;;;;4974071;28;20125;-44
2022/07/23 10:35:11;;;;;;;1.38;0.70;;;24.40;73.60;;;;;;4975664;28;20101;-43
2022/07/23 10:37:40;;;;;;;1.73;0.77;;;24.30;74.60;;;;;;4993210;28;20047;-44
2022/07/23 10:40:10;;;;;;;1.25;0.80;;;24.40;74.90;;;;;;4966080;28;20491;-43
2022/07/23 10:42:39;;;;;;;1.15;0.60;;;24.60;73.90;;;;;;4988608;28;20469;-43
2022/07/23 10:45:27;;;;;;;1.75;0.68;;;24.70;73.10;;;;;;4947013;28;20404;-43
2022/07/23 10:47:54;;;;;;;1.15;0.82;;;24.90;73.40;;;;;;4952037;29;20066;-43
2022/07/23 10:50:22;;;;;;;3.80;0.90;;;24.90;73.10;;;;;;4970249;28;20058;-44
2022/07/23 10:53:15;;;;;;;1.55;0.70;;;24.90;72.70;;;;;;4970066;28;20133;-44
2022/07/23 10:55:52;;;;;;;1.25;0.63;;;24.90;72.50;;;;;;4971824;28;20398;-43
2022/07/23 10:58:21;;;;;;;0.93;0.55;;;25.00;73.20;;;;;;4955641;28;20079;-44
2022/07/23 11:00:48;;;;;;;3.92;1.00;;;25.00;73.30;;;;;;4956684;28;20055;-43
2022/07/23 11:03:36;;;;;;;3.22;0.77;;;25.20;72.00;;;;;;4952465;28;20047;-44
2022/07/23 11:06:03;;;;;;;1.95;1.00;;;25.40;71.70;;;;;;4976154;28;20062;-44
2022/07/23 11:08:30;;;;;;;1.42;0.85;;;25.50;70.40;;;;;;4975533;28;20137;-44
2022/07/23 11:11:08;;;;;;;1.58;0.85;;;25.50;71.00;;;;;;5007690;28;20457;-43
2022/07/23 11:13:47;;;;;;;2.22;1.10;;;25.40;71.00;;;;;;4991046;28;20054;-44
2022/07/23 11:16:32;;;;;;;2.65;0.90;;;25.30;71.30;;;;;;4975597;28;20138;-44
2022/07/23 11:19:08;;;;;;;2.13;1.15;;;25.40;70.80;;;;;;4973113;28;20141;-45
2022/07/23 11:21:42;;;;;;;6.78;1.23;;;25.50;69.80;;;;;;4983830;28;20050;-44
2022/07/23 11:24:10;;;;;;;2.47;0.88;;;25.40;69.90;;;;;;4990068;28;20082;-44
2022/07/23 11:26:54;;;;;;;2.15;0.85;;;25.30;70.50;;;;;;4992057;28;20140;-43
2022/07/23 11:29:58;;;;;;;1.60;1.17;;;25.40;70.90;;;;;;4996299;28;20499;-44
2022/07/23 11:32:34;;;;;;;2.58;1.20;;;25.30;71.10;;;;;;4977140;28;20138;-43
2022/07/23 11:35:01;;;;;;;1.52;1.13;;;25.20;70.50;;;;;;4992563;28;20050;-44
2022/07/23 11:37:34;;;;;;;3.00;1.00;;;25.10;70.00;;;;;;4994001;28;20046;-44
2022/07/23 11:40:01;;;;;;;2.20;1.13;;;25.10;69.10;;;;;;4975271;28;20068;-44
2022/07/23 11:42:28;;;;;;;3.15;1.40;;;25.00;69.20;;;;;;4978415;28;20144;-44
2022/07/23 11:44:56;;;;;;;8.23;1.35;;;24.90;70.00;;;;;;4976955;28;20077;-43
2022/07/23 11:47:24;;;;;;;3.65;1.52;;;24.90;70.20;;;;;;4995780;28;20057;-43
2022/07/23 11:49:54;;;;;;;3.22;1.20;;;24.90;69.90;;;;;;4994267;28;20117;-43
2022/07/23 11:52:21;;;;;;;2.30;1.08;;;24.90;69.70;;;;;;4995904;28;20085;-44
2022/07/23 11:54:50;;;;;;;2.50;1.00;;;24.90;69.60;;;;;;4994989;28;20129;-44
2022/07/23 11:57:16;;;;;;;3.97;1.20;;;24.80;70.20;;;;;;4977025;28;20051;-43
2022/07/23 11:59:43;;;;;;;2.05;1.10;;;24.80;71.30;;;;;;4994814;28;20038;-44
2022/07/23 12:02:11;;;;;;;2.15;1.00;;;24.90;71.30;;;;;;5008608;28;20132;-44
2022/07/23 12:04:39;;;;;;;2.25;1.10;;;25.00;71.20;;;;;;5000690;28;20085;-43
2022/07/23 12:07:06;;;;;;;1.48;1.10;;;25.00;71.40;;;;;;4988992;28;20047;-43
2022/07/23 12:09:33;;;;;;;2.55;1.27;;;25.00;71.30;;;;;;4992350;28;20085;-42
2022/07/23 12:12:00;;;;;;;2.67;1.20;;;25.10;71.10;;;;;;4994692;28;20078;-44
2022/07/23 12:14:27;;;;;;;3.00;1.27;;;25.30;71.20;;;;;;4978180;28;20137;-42
2022/07/23 12:17:10;;;;;;;1.48;0.95;;;25.60;70.20;;;;;;4995877;28;20090;-43
2022/07/23 12:19:37;;;;;;;2.10;1.20;;;25.80;70.80;;;;;;4994626;28;20129;-43
2022/07/23 12:22:04;;;;;;;1.70;1.27;;;25.90;69.70;;;;;;4995237;28;20653;-43
2022/07/23 12:24:31;;;;;;;2.13;1.10;;;26.00;69.60;;;;;;4993889;28;20101;-43
2022/07/23 12:27:13;;;;;;;3.03;1.10;;;26.20;70.00;;;;;;4998704;28;20050;-43
2022/07/23 12:29:40;;;;;;;2.80;1.17;;;26.30;69.70;;;;;;4995645;28;20097;-43
2022/07/23 12:32:20;;;;;;;1.73;1.17;;;26.50;69.90;;;;;;4978004;28;20574;-43
2022/07/23 12:34:47;;;;;;;3.95;1.33;;;26.70;68.70;;;;;;4994028;28;20046;-43
2022/07/23 12:37:30;;;;;;;1.38;1.13;;;26.80;68.50;;;;;;4977963;28;20141;-43
2022/07/23 12:39:56;;;;;;;1.95;1.10;;;26.90;67.20;;;;;;4975518;28;20086;-43
2022/07/23 12:42:24;;;;;;;2.17;1.10;;;26.80;67.70;;;;;;4975687;28;20134;-43
2022/07/23 12:45:08;;;;;;;1.45;1.15;;;26.80;68.40;;;;;;4977668;28;20077;-42
2022/07/23 12:48:01;;;;;;;2.85;1.30;;;26.90;68.30;;;;;;4994438;28;20533;-43
2022/07/23 12:50:38;;;;;;;3.03;1.55;;;26.90;68.50;;;;;;4989529;28;20062;-43
2022/07/23 12:53:06;;;;;;;6.30;1.13;;;27.10;67.70;;;;;;4993864;28;20061;-43
2022/07/23 12:55:33;;;;;;;4.72;1.50;;;27.30;67.80;;;;;;4994700;28;20054;-44